• Join FlightAware (Why Join?)
  • Login
  • US Flag 
12:30PM EST


 

Airport Tracker/Info


-or-


 

Live Flight TrackerFlight Track Log ✈ AMF1324 ✈ 26-Mar-2014 ✈ KBGM - KBUF

Flight Track Log - Related Links

Times and Time Zones

All times are in EDT time to prevent confusion due to time zone crossing. See the AMF1324 flight status page for this flight to view local times or setup timezone preferences in your user account.

Time Position Orientation Groundspeed Altitude Reporting Facility
EDT Latitude Longitude Course Direction KTS MPH feet Rate Location/Type
09:02AM 42.2272 -76.0328 296° West 175 201 4,500  Level New York Center
09:03AM 42.2478 -76.0906 296° West 181 208 7,500 2,520 Climbing New York Center
09:04AM 42.2658 -76.1508 292° West 176 203 9,500 2,220 Climbing New York Center
09:05AM 42.2900 -76.2144 297° West 176 203 12,000 720 Climbing New York Center
09:07AM 42.3492 -76.4108 292° West 244 281 12,100  Climbing Cleveland Center
09:08AM 42.3756 -76.4967 293° West 244 281 12,100 -120 Level Cleveland Center
09:09AM 42.4036 -76.5792 295° West 244 281 11,900 -120 Descending Cleveland Center
09:10AM 42.4311 -76.6622 294° West 244 281 11,900  Level Cleveland Center
09:11AM 42.4597 -76.7436 295° West 242 278 11,900  Level Cleveland Center
09:12AM 42.4842 -76.8267 292° West 242 278 11,900  Level Cleveland Center
09:13AM 42.5175 -76.9272 294° West 242 278 11,900  Level Cleveland Center
09:14AM 42.5433 -77.0097 293° West 241 277 11,900  Level Cleveland Center
09:15AM 42.5683 -77.0953 292° West 242 278 12,000  Climbing Cleveland Center
09:16AM 42.5961 -77.1783 294° West 242 278 12,000  Level Cleveland Center
09:18AM 42.6275 -77.2594 298° West 243 280 12,000  Level Cleveland Center
09:19AM 42.6603 -77.3378 300° West 243 280 12,000  Level Cleveland Center
09:20AM 42.6961 -77.4358 296° West 242 278 12,000  Level Cleveland Center
09:21AM 42.7342 -77.5086 305° West 242 278 12,000  Level Cleveland Center
09:21AM 42.7558 -77.5428 311° West 234 269 12,000 -120 Level Cleveland Center
09:22AM 42.7736 -77.5786 304° West 241 277 11,900 -300 Descending Cleveland Center
09:22AM 42.7847 -77.6081 297° West 245 282 11,800 -720 Descending Cleveland Center
09:23AM 42.8028 -77.6606 295° West 242 278 11,200 -1,020 Descending Cleveland Center
09:23AM 42.8150 -77.6939 297° West 248 285 10,800 -1,260 Descending Cleveland Center
09:24AM 42.8403 -77.7567 299° West 242 278 9,900 -1,140 Descending Cleveland Center
09:24AM 42.8433 -77.7764 282° West 240 276 9,700 -1,020 Descending Cleveland Center
09:25AM 42.8497 -77.8464 277° West 250 288 8,900 -1,080 Descending Cleveland Center
09:26AM 42.8606 -77.9406 279° West 245 282 7,800 -1,080 Descending Cleveland Center
09:27AM 42.8739 -78.0336 281° West 242 278 6,700 -1,020 Descending Cleveland Center
09:28AM 42.8853 -78.1222 280° West 232 267 5,800 -960 Descending Cleveland Center
09:29AM 42.8950 -78.2133 278° West 232 267 4,800 -900 Descending Cleveland Center
09:30AM 42.9267 -78.2897 300° West 222 255 4,000 -480 Descending Cleveland Center
09:31AM 42.9550 -78.3567 300° West 210 242 3,900  Descending Cleveland Center
09:32AM 42.9814 -78.4244 298° West 205 236 4,000 -540 Climbing Cleveland Center
09:33AM 43.0133 -78.4833 307° West 198 228 2,800 -840 Descending Cleveland Center
09:34AM 43.0453 -78.5397 308° West 193 222 2,300 -300 Descending Cleveland Center
09:35AM 43.0353 -78.5969 257° West 178 205 2,300  Level Cleveland Center
09:36AM 43.0167 -78.6333 235° Southwest 159 183 2,300 -300 Level Buffalo TRACON
09:37AM 42.9833 -78.6667 216° Southwest 140 161 1,900 -600 Descending Buffalo TRACON
09:38AM 42.9667 -78.7000 236° Southwest 121 139 1,200 -720 Descending Buffalo TRACON
09:40AM 42.9333 -78.7167 233° Southwest  Level FlightAware Approximate